sensor_id;sensor_type;location;lat;lon;timestamp;P1;durP1;ratioP1;P2;durP2;ratioP2
35444;SDS011;21562;49.476;6.086;2023-03-01T00:01:08;15.05;;;7.05;;
35444;SDS011;21562;49.476;6.086;2023-03-01T00:03:36;13.15;;;6.30;;
35444;SDS011;21562;49.476;6.086;2023-03-01T00:06:02;14.90;;;6.72;;
35444;SDS011;21562;49.476;6.086;2023-03-01T00:08:28;12.32;;;6.57;;
35444;SDS011;21562;49.476;6.086;2023-03-01T00:11:08;12.40;;;6.53;;
35444;SDS011;21562;49.476;6.086;2023-03-01T00:13:37;12.80;;;6.90;;
35444;SDS011;21562;49.476;6.086;2023-03-01T00:16:04;12.65;;;7.05;;
35444;SDS011;21562;49.476;6.086;2023-03-01T00:18:34;12.30;;;7.07;;
35444;SDS011;21562;49.476;6.086;2023-03-01T00:21:00;13.80;;;6.45;;
35444;SDS011;21562;49.476;6.086;2023-03-01T00:23:26;13.80;;;7.32;;
35444;SDS011;21562;49.476;6.086;2023-03-01T00:25:52;14.98;;;6.40;;
35444;SDS011;21562;49.476;6.086;2023-03-01T00:28:18;14.25;;;7.28;;
35444;SDS011;21562;49.476;6.086;2023-03-01T00:30:44;15.77;;;7.13;;
35444;SDS011;21562;49.476;6.086;2023-03-01T00:33:10;11.27;;;7.10;;
35444;SDS011;21562;49.476;6.086;2023-03-01T00:35:36;14.38;;;7.10;;
35444;SDS011;21562;49.476;6.086;2023-03-01T00:38:02;14.00;;;7.22;;
35444;SDS011;21562;49.476;6.086;2023-03-01T00:40:29;12.52;;;6.63;;
35444;SDS011;21562;49.476;6.086;2023-03-01T00:42:57;14.80;;;6.53;;
35444;SDS011;21562;49.476;6.086;2023-03-01T00:45:23;14.95;;;7.05;;
35444;SDS011;21562;49.476;6.086;2023-03-01T00:47:50;11.00;;;5.97;;
35444;SDS011;21562;49.476;6.086;2023-03-01T00:50:16;16.73;;;6.65;;
35444;SDS011;21562;49.476;6.086;2023-03-01T00:52:42;13.32;;;6.95;;
35444;SDS011;21562;49.476;6.086;2023-03-01T00:55:08;11.88;;;6.47;;
35444;SDS011;21562;49.476;6.086;2023-03-01T00:57:34;14.35;;;6.78;;
35444;SDS011;21562;49.476;6.086;2023-03-01T01:00:00;11.07;;;6.38;;
35444;SDS011;21562;49.476;6.086;2023-03-01T01:02:25;13.85;;;6.60;;
35444;SDS011;21562;49.476;6.086;2023-03-01T01:04:51;15.38;;;7.32;;
35444;SDS011;21562;49.476;6.086;2023-03-01T01:07:17;14.18;;;6.68;;
35444;SDS011;21562;49.476;6.086;2023-03-01T01:09:45;11.02;;;6.32;;
35444;SDS011;21562;49.476;6.086;2023-03-01T01:12:10;16.58;;;7.78;;
35444;SDS011;21562;49.476;6.086;2023-03-01T01:14:36;16.05;;;7.28;;
35444;SDS011;21562;49.476;6.086;2023-03-01T01:17:02;11.48;;;6.70;;
35444;SDS011;21562;49.476;6.086;2023-03-01T01:19:28;16.05;;;7.15;;
35444;SDS011;21562;49.476;6.086;2023-03-01T01:21:53;12.23;;;7.43;;
35444;SDS011;21562;49.476;6.086;2023-03-01T01:24:19;13.07;;;6.68;;
35444;SDS011;21562;49.476;6.086;2023-03-01T01:26:45;13.90;;;6.72;;
35444;SDS011;21562;49.476;6.086;2023-03-01T01:29:11;18.00;;;7.90;;
35444;SDS011;21562;49.476;6.086;2023-03-01T01:31:37;13.85;;;7.10;;
35444;SDS011;21562;49.476;6.086;2023-03-01T01:34:05;14.00;;;7.60;;
35444;SDS011;21562;49.476;6.086;2023-03-01T01:36:32;12.57;;;7.15;;
35444;SDS011;21562;49.476;6.086;2023-03-01T01:38:59;15.48;;;7.10;;
35444;SDS011;21562;49.476;6.086;2023-03-01T01:41:25;17.00;;;7.53;;
35444;SDS011;21562;49.476;6.086;2023-03-01T01:46:45;15.98;;;7.72;;
35444;SDS011;21562;49.476;6.086;2023-03-01T01:54:51;14.88;;;7.43;;
35444;SDS011;21562;49.476;6.086;2023-03-01T01:57:26;12.13;;;7.25;;
35444;SDS011;21562;49.476;6.086;2023-03-01T01:59:54;15.20;;;7.93;;
35444;SDS011;21562;49.476;6.086;2023-03-01T02:02:24;13.40;;;7.20;;
35444;SDS011;21562;49.476;6.086;2023-03-01T02:04:52;13.00;;;8.30;;
35444;SDS011;21562;49.476;6.086;2023-03-01T02:07:35;18.33;;;8.52;;
35444;SDS011;21562;49.476;6.086;2023-03-01T02:10:04;16.92;;;7.90;;
35444;SDS011;21562;49.476;6.086;2023-03-01T02:12:31;16.00;;;7.63;;
35444;SDS011;21562;49.476;6.086;2023-03-01T02:14:57;17.38;;;8.45;;
35444;SDS011;21562;49.476;6.086;2023-03-01T02:17:22;15.60;;;8.10;;
35444;SDS011;21562;49.476;6.086;2023-03-01T02:22:22;19.23;;;8.50;;
35444;SDS011;21562;49.476;6.086;2023-03-01T02:27:48;16.88;;;8.57;;
35444;SDS011;21562;49.476;6.086;2023-03-01T02:30:16;15.65;;;8.52;;
35444;SDS011;21562;49.476;6.086;2023-03-01T02:32:43;13.40;;;8.32;;
35444;SDS011;21562;49.476;6.086;2023-03-01T02:35:13;17.08;;;8.18;;
35444;SDS011;21562;49.476;6.086;2023-03-01T02:37:41;16.23;;;8.40;;
35444;SDS011;21562;49.476;6.086;2023-03-01T02:40:09;18.60;;;8.18;;
35444;SDS011;21562;49.476;6.086;2023-03-01T02:42:45;16.60;;;8.27;;
35444;SDS011;21562;49.476;6.086;2023-03-01T02:45:14;16.20;;;8.73;;
35444;SDS011;21562;49.476;6.086;2023-03-01T02:47:40;17.52;;;8.82;;
35444;SDS011;21562;49.476;6.086;2023-03-01T02:50:15;18.58;;;8.90;;
35444;SDS011;21562;49.476;6.086;2023-03-01T02:52:55;15.95;;;8.98;;
35444;SDS011;21562;49.476;6.086;2023-03-01T02:55:22;16.55;;;9.18;;
35444;SDS011;21562;49.476;6.086;2023-03-01T02:57:48;17.55;;;8.73;;
35444;SDS011;21562;49.476;6.086;2023-03-01T03:00:38;17.50;;;8.63;;
35444;SDS011;21562;49.476;6.086;2023-03-01T03:03:05;20.48;;;8.30;;
35444;SDS011;21562;49.476;6.086;2023-03-01T03:05:32;17.27;;;8.57;;
35444;SDS011;21562;49.476;6.086;2023-03-01T03:07:58;14.52;;;8.43;;
35444;SDS011;21562;49.476;6.086;2023-03-01T03:10:30;18.63;;;8.80;;
35444;SDS011;21562;49.476;6.086;2023-03-01T03:12:59;18.13;;;9.02;;
35444;SDS011;21562;49.476;6.086;2023-03-01T03:15:27;17.05;;;8.32;;
35444;SDS011;21562;49.476;6.086;2023-03-01T03:17:54;17.27;;;9.13;;
35444;SDS011;21562;49.476;6.086;2023-03-01T03:20:21;16.13;;;9.75;;
35444;SDS011;21562;49.476;6.086;2023-03-01T03:22:51;19.10;;;9.55;;
35444;SDS011;21562;49.476;6.086;2023-03-01T03:25:18;16.38;;;8.77;;
35444;SDS011;21562;49.476;6.086;2023-03-01T03:27:46;17.20;;;9.13;;
35444;SDS011;21562;49.476;6.086;2023-03-01T03:30:17;22.02;;;9.35;;
35444;SDS011;21562;49.476;6.086;2023-03-01T03:32:45;18.83;;;10.02;;
35444;SDS011;21562;49.476;6.086;2023-03-01T03:35:17;18.02;;;9.60;;
35444;SDS011;21562;49.476;6.086;2023-03-01T03:37:55;21.92;;;9.48;;
35444;SDS011;21562;49.476;6.086;2023-03-01T03:43:13;16.30;;;9.55;;
35444;SDS011;21562;49.476;6.086;2023-03-01T03:45:43;22.77;;;10.40;;
35444;SDS011;21562;49.476;6.086;2023-03-01T03:48:10;19.98;;;10.35;;
35444;SDS011;21562;49.476;6.086;2023-03-01T03:50:36;21.58;;;10.05;;
35444;SDS011;21562;49.476;6.086;2023-03-01T03:53:05;17.05;;;9.88;;
35444;SDS011;21562;49.476;6.086;2023-03-01T03:55:35;21.75;;;10.73;;
35444;SDS011;21562;49.476;6.086;2023-03-01T03:58:04;20.65;;;10.25;;
35444;SDS011;21562;49.476;6.086;2023-03-01T04:00:35;21.42;;;10.27;;
35444;SDS011;21562;49.476;6.086;2023-03-01T04:03:05;20.08;;;10.77;;
35444;SDS011;21562;49.476;6.086;2023-03-01T04:05:32;18.63;;;10.35;;
35444;SDS011;21562;49.476;6.086;2023-03-01T04:07:58;22.33;;;10.55;;
35444;SDS011;21562;49.476;6.086;2023-03-01T04:10:30;18.92;;;10.20;;
35444;SDS011;21562;49.476;6.086;2023-03-01T04:13:02;20.10;;;10.63;;
35444;SDS011;21562;49.476;6.086;2023-03-01T04:15:28;20.23;;;11.40;;
35444;SDS011;21562;49.476;6.086;2023-03-01T04:17:54;19.98;;;10.68;;
35444;SDS011;21562;49.476;6.086;2023-03-01T04:20:21;20.42;;;10.98;;
35444;SDS011;21562;49.476;6.086;2023-03-01T04:23:06;22.63;;;10.05;;
35444;SDS011;21562;49.476;6.086;2023-03-01T04:25:54;24.10;;;10.85;;
35444;SDS011;21562;49.476;6.086;2023-03-01T04:30:50;24.85;;;11.13;;
35444;SDS011;21562;49.476;6.086;2023-03-01T04:33:16;22.42;;;10.43;;
35444;SDS011;21562;49.476;6.086;2023-03-01T04:35:42;20.23;;;11.23;;
35444;SDS011;21562;49.476;6.086;2023-03-01T04:38:08;25.73;;;11.35;;
35444;SDS011;21562;49.476;6.086;2023-03-01T04:40:34;20.90;;;11.10;;
35444;SDS011;21562;49.476;6.086;2023-03-01T04:43:00;19.80;;;10.43;;
35444;SDS011;21562;49.476;6.086;2023-03-01T04:45:27;26.45;;;10.63;;
35444;SDS011;21562;49.476;6.086;2023-03-01T04:47:52;23.17;;;10.95;;
35444;SDS011;21562;49.476;6.086;2023-03-01T04:50:18;25.92;;;11.80;;
35444;SDS011;21562;49.476;6.086;2023-03-01T04:52:48;28.00;;;10.95;;
35444;SDS011;21562;49.476;6.086;2023-03-01T04:55:14;22.67;;;11.75;;
35444;SDS011;21562;49.476;6.086;2023-03-01T04:57:40;21.27;;;11.32;;
35444;SDS011;21562;49.476;6.086;2023-03-01T05:00:07;22.25;;;11.77;;
35444;SDS011;21562;49.476;6.086;2023-03-01T05:02:52;21.00;;;11.82;;
35444;SDS011;21562;49.476;6.086;2023-03-01T05:05:24;25.70;;;12.13;;
35444;SDS011;21562;49.476;6.086;2023-03-01T05:07:52;23.83;;;12.98;;
35444;SDS011;21562;49.476;6.086;2023-03-01T05:10:23;23.73;;;12.57;;
35444;SDS011;21562;49.476;6.086;2023-03-01T05:12:49;21.63;;;11.57;;
35444;SDS011;21562;49.476;6.086;2023-03-01T05:15:17;22.98;;;11.93;;
35444;SDS011;21562;49.476;6.086;2023-03-01T05:17:43;25.63;;;11.88;;
35444;SDS011;21562;49.476;6.086;2023-03-01T05:20:09;30.40;;;14.57;;
35444;SDS011;21562;49.476;6.086;2023-03-01T05:22:35;23.10;;;11.63;;
35444;SDS011;21562;49.476;6.086;2023-03-01T05:25:02;28.17;;;13.27;;
35444;SDS011;21562;49.476;6.086;2023-03-01T05:27:28;23.85;;;12.73;;
35444;SDS011;21562;49.476;6.086;2023-03-01T05:29:54;26.27;;;14.23;;
35444;SDS011;21562;49.476;6.086;2023-03-01T05:32:20;26.70;;;12.73;;
35444;SDS011;21562;49.476;6.086;2023-03-01T05:34:46;26.77;;;13.32;;
35444;SDS011;21562;49.476;6.086;2023-03-01T05:37:12;29.15;;;13.35;;
35444;SDS011;21562;49.476;6.086;2023-03-01T05:39:38;24.00;;;12.35;;
35444;SDS011;21562;49.476;6.086;2023-03-01T05:42:04;22.85;;;13.18;;
35444;SDS011;21562;49.476;6.086;2023-03-01T05:44:30;24.13;;;12.05;;
35444;SDS011;21562;49.476;6.086;2023-03-01T05:46:56;27.90;;;13.40;;
35444;SDS011;21562;49.476;6.086;2023-03-01T05:49:22;23.48;;;12.93;;
35444;SDS011;21562;49.476;6.086;2023-03-01T05:51:52;29.85;;;13.88;;
35444;SDS011;21562;49.476;6.086;2023-03-01T05:54:21;29.25;;;13.27;;
35444;SDS011;21562;49.476;6.086;2023-03-01T05:56:47;31.35;;;14.20;;
35444;SDS011;21562;49.476;6.086;2023-03-01T05:59:12;35.70;;;14.88;;
35444;SDS011;21562;49.476;6.086;2023-03-01T06:01:41;29.52;;;13.95;;
35444;SDS011;21562;49.476;6.086;2023-03-01T06:04:06;29.25;;;13.82;;
35444;SDS011;21562;49.476;6.086;2023-03-01T06:06:35;29.05;;;13.77;;
35444;SDS011;21562;49.476;6.086;2023-03-01T06:09:05;26.10;;;13.75;;
35444;SDS011;21562;49.476;6.086;2023-03-01T06:11:33;24.70;;;13.43;;
35444;SDS011;21562;49.476;6.086;2023-03-01T06:13:59;29.60;;;14.38;;
35444;SDS011;21562;49.476;6.086;2023-03-01T06:16:25;26.08;;;13.32;;
35444;SDS011;21562;49.476;6.086;2023-03-01T06:18:50;27.67;;;14.07;;
35444;SDS011;21562;49.476;6.086;2023-03-01T06:21:16;35.63;;;15.23;;
35444;SDS011;21562;49.476;6.086;2023-03-01T06:23:41;31.80;;;14.13;;
35444;SDS011;21562;49.476;6.086;2023-03-01T06:26:07;29.55;;;13.20;;
35444;SDS011;21562;49.476;6.086;2023-03-01T06:28:33;29.80;;;14.57;;
35444;SDS011;21562;49.476;6.086;2023-03-01T06:30:59;29.20;;;13.60;;
35444;SDS011;21562;49.476;6.086;2023-03-01T06:33:25;38.28;;;15.25;;
35444;SDS011;21562;49.476;6.086;2023-03-01T06:35:51;29.63;;;14.43;;
35444;SDS011;21562;49.476;6.086;2023-03-01T06:38:19;26.30;;;13.52;;
35444;SDS011;21562;49.476;6.086;2023-03-01T06:40:45;34.40;;;14.35;;
35444;SDS011;21562;49.476;6.086;2023-03-01T06:43:16;28.88;;;14.98;;
35444;SDS011;21562;49.476;6.086;2023-03-01T06:45:41;30.35;;;14.18;;
35444;SDS011;21562;49.476;6.086;2023-03-01T06:48:07;31.52;;;15.20;;
35444;SDS011;21562;49.476;6.086;2023-03-01T06:50:35;31.60;;;14.80;;
35444;SDS011;21562;49.476;6.086;2023-03-01T06:53:01;40.83;;;15.48;;
35444;SDS011;21562;49.476;6.086;2023-03-01T06:55:27;35.00;;;15.25;;
35444;SDS011;21562;49.476;6.086;2023-03-01T06:57:56;37.03;;;15.88;;
35444;SDS011;21562;49.476;6.086;2023-03-01T07:00:23;43.15;;;14.98;;
35444;SDS011;21562;49.476;6.086;2023-03-01T07:02:49;29.50;;;14.77;;
35444;SDS011;21562;49.476;6.086;2023-03-01T07:05:15;34.25;;;16.38;;
35444;SDS011;21562;49.476;6.086;2023-03-01T07:07:40;38.25;;;16.00;;
35444;SDS011;21562;49.476;6.086;2023-03-01T07:10:06;33.83;;;13.93;;
35444;SDS011;21562;49.476;6.086;2023-03-01T07:12:32;54.70;;;15.48;;
35444;SDS011;21562;49.476;6.086;2023-03-01T07:14:58;37.25;;;14.73;;
35444;SDS011;21562;49.476;6.086;2023-03-01T07:17:23;34.13;;;15.73;;
35444;SDS011;21562;49.476;6.086;2023-03-01T07:19:49;29.98;;;15.70;;
35444;SDS011;21562;49.476;6.086;2023-03-01T07:22:15;30.63;;;15.13;;
35444;SDS011;21562;49.476;6.086;2023-03-01T07:24:41;32.35;;;15.05;;
35444;SDS011;21562;49.476;6.086;2023-03-01T07:27:06;34.58;;;14.50;;
35444;SDS011;21562;49.476;6.086;2023-03-01T07:29:32;36.05;;;14.77;;
35444;SDS011;21562;49.476;6.086;2023-03-01T07:31:58;49.30;;;17.17;;
35444;SDS011;21562;49.476;6.086;2023-03-01T07:34:23;42.65;;;18.38;;
35444;SDS011;21562;49.476;6.086;2023-03-01T07:36:49;55.53;;;26.77;;
35444;SDS011;21562;49.476;6.086;2023-03-01T07:39:15;38.60;;;19.63;;
35444;SDS011;21562;49.476;6.086;2023-03-01T07:41:40;33.30;;;17.17;;
35444;SDS011;21562;49.476;6.086;2023-03-01T07:44:06;32.00;;;15.45;;
35444;SDS011;21562;49.476;6.086;2023-03-01T07:46:32;29.92;;;15.63;;
35444;SDS011;21562;49.476;6.086;2023-03-01T07:48:58;31.70;;;16.02;;
35444;SDS011;21562;49.476;6.086;2023-03-01T07:51:23;31.05;;;15.15;;
35444;SDS011;21562;49.476;6.086;2023-03-01T07:53:49;37.78;;;15.13;;
35444;SDS011;21562;49.476;6.086;2023-03-01T07:56:15;32.70;;;15.52;;
35444;SDS011;21562;49.476;6.086;2023-03-01T07:58:43;34.63;;;16.17;;
35444;SDS011;21562;49.476;6.086;2023-03-01T08:01:11;42.20;;;17.02;;
35444;SDS011;21562;49.476;6.086;2023-03-01T08:03:38;34.60;;;16.13;;
35444;SDS011;21562;49.476;6.086;2023-03-01T08:06:05;32.55;;;15.77;;
35444;SDS011;21562;49.476;6.086;2023-03-01T08:08:33;38.78;;;15.30;;
35444;SDS011;21562;49.476;6.086;2023-03-01T08:10:59;34.97;;;17.23;;
35444;SDS011;21562;49.476;6.086;2023-03-01T08:13:26;34.47;;;17.10;;
35444;SDS011;21562;49.476;6.086;2023-03-01T08:15:52;31.98;;;16.33;;
35444;SDS011;21562;49.476;6.086;2023-03-01T08:18:19;39.50;;;15.60;;
35444;SDS011;21562;49.476;6.086;2023-03-01T08:20:45;33.00;;;15.93;;
35444;SDS011;21562;49.476;6.086;2023-03-01T08:23:12;39.90;;;17.63;;
35444;SDS011;21562;49.476;6.086;2023-03-01T08:25:37;37.53;;;16.27;;
35444;SDS011;21562;49.476;6.086;2023-03-01T08:28:04;33.60;;;16.27;;
35444;SDS011;21562;49.476;6.086;2023-03-01T08:30:30;39.17;;;17.20;;
35444;SDS011;21562;49.476;6.086;2023-03-01T08:32:56;39.90;;;16.60;;
35444;SDS011;21562;49.476;6.086;2023-03-01T08:35:22;31.98;;;15.98;;
35444;SDS011;21562;49.476;6.086;2023-03-01T08:37:48;33.78;;;16.33;;
35444;SDS011;21562;49.476;6.086;2023-03-01T08:40:13;36.88;;;16.52;;
35444;SDS011;21562;49.476;6.086;2023-03-01T08:42:40;40.63;;;17.15;;
35444;SDS011;21562;49.476;6.086;2023-03-01T08:45:08;31.08;;;15.80;;
35444;SDS011;21562;49.476;6.086;2023-03-01T08:47:34;32.40;;;16.25;;
35444;SDS011;21562;49.476;6.086;2023-03-01T08:50:00;38.63;;;17.02;;
35444;SDS011;21562;49.476;6.086;2023-03-01T08:52:25;45.33;;;17.63;;
35444;SDS011;21562;49.476;6.086;2023-03-01T08:54:51;37.70;;;16.42;;
35444;SDS011;21562;49.476;6.086;2023-03-01T08:57:17;38.97;;;17.05;;
35444;SDS011;21562;49.476;6.086;2023-03-01T08:59:43;38.45;;;17.15;;
35444;SDS011;21562;49.476;6.086;2023-03-01T09:02:11;38.20;;;17.25;;
35444;SDS011;21562;49.476;6.086;2023-03-01T09:04:38;43.53;;;15.85;;
35444;SDS011;21562;49.476;6.086;2023-03-01T09:07:04;42.40;;;17.30;;
35444;SDS011;21562;49.476;6.086;2023-03-01T09:09:30;37.45;;;17.05;;
35444;SDS011;21562;49.476;6.086;2023-03-01T09:11:56;35.88;;;18.20;;
35444;SDS011;21562;49.476;6.086;2023-03-01T09:14:21;35.65;;;16.50;;
35444;SDS011;21562;49.476;6.086;2023-03-01T09:16:47;40.67;;;17.83;;
35444;SDS011;21562;49.476;6.086;2023-03-01T09:19:13;43.38;;;16.50;;
35444;SDS011;21562;49.476;6.086;2023-03-01T09:21:39;35.17;;;16.40;;
35444;SDS011;21562;49.476;6.086;2023-03-01T09:24:05;33.55;;;16.05;;
35444;SDS011;21562;49.476;6.086;2023-03-01T09:26:37;34.00;;;16.77;;
35444;SDS011;21562;49.476;6.086;2023-03-01T09:29:03;41.35;;;17.63;;
35444;SDS011;21562;49.476;6.086;2023-03-01T09:31:29;37.47;;;16.48;;
35444;SDS011;21562;49.476;6.086;2023-03-01T09:33:54;36.92;;;16.75;;
35444;SDS011;21562;49.476;6.086;2023-03-01T09:36:21;51.78;;;19.90;;
35444;SDS011;21562;49.476;6.086;2023-03-01T09:38:48;39.60;;;17.30;;
35444;SDS011;21562;49.476;6.086;2023-03-01T09:41:26;43.30;;;17.17;;
35444;SDS011;21562;49.476;6.086;2023-03-01T09:46:29;40.85;;;16.45;;
35444;SDS011;21562;49.476;6.086;2023-03-01T09:49:09;39.38;;;17.70;;
35444;SDS011;21562;49.476;6.086;2023-03-01T09:51:48;33.65;;;16.80;;
35444;SDS011;21562;49.476;6.086;2023-03-01T09:54:21;31.23;;;15.68;;
35444;SDS011;21562;49.476;6.086;2023-03-01T09:57:11;32.50;;;17.85;;
35444;SDS011;21562;49.476;6.086;2023-03-01T10:02:42;39.85;;;16.30;;
35444;SDS011;21562;49.476;6.086;2023-03-01T10:08:41;33.78;;;16.70;;
35444;SDS011;21562;49.476;6.086;2023-03-01T10:10:49;37.65;;;16.95;;
35444;SDS011;21562;49.476;6.086;2023-03-01T10:16:04;38.92;;;18.20;;
35444;SDS011;21562;49.476;6.086;2023-03-01T10:18:36;36.60;;;16.75;;
35444;SDS011;21562;49.476;6.086;2023-03-01T10:21:08;34.80;;;17.08;;
35444;SDS011;21562;49.476;6.086;2023-03-01T10:23:42;30.88;;;16.70;;
35444;SDS011;21562;49.476;6.086;2023-03-01T10:26:21;35.83;;;16.35;;
35444;SDS011;21562;49.476;6.086;2023-03-01T10:34:19;31.50;;;16.67;;
35444;SDS011;21562;49.476;6.086;2023-03-01T10:36:55;37.10;;;17.45;;
35444;SDS011;21562;49.476;6.086;2023-03-01T10:39:24;36.78;;;17.52;;
35444;SDS011;21562;49.476;6.086;2023-03-01T10:47:40;29.42;;;16.17;;
35444;SDS011;21562;49.476;6.086;2023-03-01T10:50:09;34.67;;;16.33;;
35444;SDS011;21562;49.476;6.086;2023-03-01T10:52:47;34.95;;;16.92;;
35444;SDS011;21562;49.476;6.086;2023-03-01T10:55:34;32.75;;;17.33;;
35444;SDS011;21562;49.476;6.086;2023-03-01T11:00:52;32.90;;;16.63;;
35444;SDS011;21562;49.476;6.086;2023-03-01T11:03:28;31.52;;;16.30;;
35444;SDS011;21562;49.476;6.086;2023-03-01T11:13:34;37.15;;;17.17;;
35444;SDS011;21562;49.476;6.086;2023-03-01T11:16:05;38.00;;;17.83;;
35444;SDS011;21562;49.476;6.086;2023-03-01T11:18:34;33.95;;;16.85;;
35444;SDS011;21562;49.476;6.086;2023-03-01T11:21:00;31.95;;;17.23;;
35444;SDS011;21562;49.476;6.086;2023-03-01T11:23:27;31.40;;;16.73;;
35444;SDS011;21562;49.476;6.086;2023-03-01T11:25:56;29.08;;;15.85;;
35444;SDS011;21562;49.476;6.086;2023-03-01T11:28:28;33.53;;;17.48;;
35444;SDS011;21562;49.476;6.086;2023-03-01T11:38:54;36.92;;;18.98;;
35444;SDS011;21562;49.476;6.086;2023-03-01T11:41:23;32.40;;;17.17;;
35444;SDS011;21562;49.476;6.086;2023-03-01T11:46:48;30.63;;;16.50;;
35444;SDS011;21562;49.476;6.086;2023-03-01T12:08:29;31.50;;;17.13;;
35444;SDS011;21562;49.476;6.086;2023-03-01T12:14:12;34.53;;;16.73;;
35444;SDS011;21562;49.476;6.086;2023-03-01T12:17:12;32.80;;;17.20;;
35444;SDS011;21562;49.476;6.086;2023-03-01T12:20:20;38.78;;;18.02;;
35444;SDS011;21562;49.476;6.086;2023-03-01T12:25:32;33.40;;;16.92;;
35444;SDS011;21562;49.476;6.086;2023-03-01T12:33:29;27.40;;;15.68;;
35444;SDS011;21562;49.476;6.086;2023-03-01T12:38:50;27.20;;;15.57;;
35444;SDS011;21562;49.476;6.086;2023-03-01T12:49:30;30.30;;;16.63;;
35444;SDS011;21562;49.476;6.086;2023-03-01T12:52:21;30.58;;;17.27;;
35444;SDS011;21562;49.476;6.086;2023-03-01T12:55:18;30.00;;;16.95;;
35444;SDS011;21562;49.476;6.086;2023-03-01T13:00:45;31.08;;;16.85;;
35444;SDS011;21562;49.476;6.086;2023-03-01T13:03:28;27.65;;;15.95;;
35444;SDS011;21562;49.476;6.086;2023-03-01T13:06:15;28.58;;;16.42;;
35444;SDS011;21562;49.476;6.086;2023-03-01T13:08:49;30.83;;;15.45;;
35444;SDS011;21562;49.476;6.086;2023-03-01T13:11:19;32.63;;;16.33;;
35444;SDS011;21562;49.476;6.086;2023-03-01T13:13:46;32.10;;;16.73;;
35444;SDS011;21562;49.476;6.086;2023-03-01T13:16:21;37.63;;;17.13;;
35444;SDS011;21562;49.476;6.086;2023-03-01T13:21:46;36.25;;;16.70;;
35444;SDS011;21562;49.476;6.086;2023-03-01T13:29:57;40.22;;;18.42;;
35444;SDS011;21562;49.476;6.086;2023-03-01T13:37:39;27.40;;;15.65;;
35444;SDS011;21562;49.476;6.086;2023-03-01T13:42:44;33.47;;;15.80;;
35444;SDS011;21562;49.476;6.086;2023-03-01T13:47:49;37.65;;;17.42;;
35444;SDS011;21562;49.476;6.086;2023-03-01T13:50:24;31.67;;;17.17;;
35444;SDS011;21562;49.476;6.086;2023-03-01T13:52:53;33.72;;;15.10;;
35444;SDS011;21562;49.476;6.086;2023-03-01T13:55:32;36.33;;;15.65;;
35444;SDS011;21562;49.476;6.086;2023-03-01T14:03:55;33.20;;;16.25;;
35444;SDS011;21562;49.476;6.086;2023-03-01T14:06:23;36.30;;;15.18;;
35444;SDS011;21562;49.476;6.086;2023-03-01T14:08:51;25.10;;;15.25;;
35444;SDS011;21562;49.476;6.086;2023-03-01T14:11:31;30.05;;;15.88;;
35444;SDS011;21562;49.476;6.086;2023-03-01T14:14:13;28.23;;;15.30;;
35444;SDS011;21562;49.476;6.086;2023-03-01T14:16:49;20.35;;;8.35;;
35444;SDS011;21562;49.476;6.086;2023-03-01T14:19:29;25.60;;;10.90;;
35444;SDS011;21562;49.476;6.086;2023-03-01T14:22:39;22.17;;;11.43;;
35444;SDS011;21562;49.476;6.086;2023-03-01T14:24:50;25.77;;;15.25;;
35444;SDS011;21562;49.476;6.086;2023-03-01T14:27:18;25.77;;;14.75;;
35444;SDS011;21562;49.476;6.086;2023-03-01T14:29:53;33.55;;;14.60;;
35444;SDS011;21562;49.476;6.086;2023-03-01T14:32:22;25.75;;;14.82;;
35444;SDS011;21562;49.476;6.086;2023-03-01T14:34:54;24.95;;;14.93;;
35444;SDS011;21562;49.476;6.086;2023-03-01T14:39:49;30.88;;;15.35;;
35444;SDS011;21562;49.476;6.086;2023-03-01T14:42:15;34.13;;;15.90;;
35444;SDS011;21562;49.476;6.086;2023-03-01T14:44:42;28.27;;;15.35;;
35444;SDS011;21562;49.476;6.086;2023-03-01T14:47:11;27.67;;;16.77;;
35444;SDS011;21562;49.476;6.086;2023-03-01T14:49:45;27.60;;;15.43;;
35444;SDS011;21562;49.476;6.086;2023-03-01T14:52:20;29.85;;;15.75;;
35444;SDS011;21562;49.476;6.086;2023-03-01T14:54:48;25.63;;;15.57;;
35444;SDS011;21562;49.476;6.086;2023-03-01T14:59:52;27.08;;;13.30;;
35444;SDS011;21562;49.476;6.086;2023-03-01T15:02:20;29.73;;;16.15;;
35444;SDS011;21562;49.476;6.086;2023-03-01T15:04:52;26.20;;;13.90;;
35444;SDS011;21562;49.476;6.086;2023-03-01T15:07:31;24.33;;;10.30;;
35444;SDS011;21562;49.476;6.086;2023-03-01T15:10:00;24.52;;;13.05;;
35444;SDS011;21562;49.476;6.086;2023-03-01T15:14:53;24.75;;;15.77;;
35444;SDS011;21562;49.476;6.086;2023-03-01T15:19:54;29.30;;;15.65;;
35444;SDS011;21562;49.476;6.086;2023-03-01T15:22:19;22.70;;;13.77;;
35444;SDS011;21562;49.476;6.086;2023-03-01T15:24:48;28.05;;;15.15;;
35444;SDS011;21562;49.476;6.086;2023-03-01T15:27:18;34.20;;;15.73;;
35444;SDS011;21562;49.476;6.086;2023-03-01T15:29:49;26.98;;;15.23;;
35444;SDS011;21562;49.476;6.086;2023-03-01T15:32:30;24.17;;;13.43;;
35444;SDS011;21562;49.476;6.086;2023-03-01T15:34:57;24.65;;;13.68;;
35444;SDS011;21562;49.476;6.086;2023-03-01T15:40:21;21.67;;;13.32;;
35444;SDS011;21562;49.476;6.086;2023-03-01T15:43:05;22.52;;;14.27;;
35444;SDS011;21562;49.476;6.086;2023-03-01T15:45:32;37.60;;;15.35;;
35444;SDS011;21562;49.476;6.086;2023-03-01T15:48:04;29.63;;;14.00;;
35444;SDS011;21562;49.476;6.086;2023-03-01T15:50:40;28.35;;;14.20;;
35444;SDS011;21562;49.476;6.086;2023-03-01T15:53:10;28.45;;;14.25;;
35444;SDS011;21562;49.476;6.086;2023-03-01T15:55:39;23.00;;;12.55;;
35444;SDS011;21562;49.476;6.086;2023-03-01T15:58:08;25.88;;;14.60;;
35444;SDS011;21562;49.476;6.086;2023-03-01T16:00:38;22.60;;;13.55;;
35444;SDS011;21562;49.476;6.086;2023-03-01T16:03:04;28.05;;;14.32;;
35444;SDS011;21562;49.476;6.086;2023-03-01T16:05:31;25.38;;;14.27;;
35444;SDS011;21562;49.476;6.086;2023-03-01T16:07:59;22.38;;;13.73;;
35444;SDS011;21562;49.476;6.086;2023-03-01T16:10:26;26.13;;;13.10;;
35444;SDS011;21562;49.476;6.086;2023-03-01T16:12:52;25.70;;;13.63;;
35444;SDS011;21562;49.476;6.086;2023-03-01T16:15:25;26.45;;;13.30;;
35444;SDS011;21562;49.476;6.086;2023-03-01T16:17:52;23.35;;;13.18;;
35444;SDS011;21562;49.476;6.086;2023-03-01T16:20:18;25.10;;;13.50;;
35444;SDS011;21562;49.476;6.086;2023-03-01T16:22:44;24.48;;;13.73;;
35444;SDS011;21562;49.476;6.086;2023-03-01T16:25:11;22.80;;;13.80;;
35444;SDS011;21562;49.476;6.086;2023-03-01T16:27:38;26.45;;;13.88;;
35444;SDS011;21562;49.476;6.086;2023-03-01T16:30:07;28.55;;;12.52;;
35444;SDS011;21562;49.476;6.086;2023-03-01T16:32:37;24.67;;;13.60;;
35444;SDS011;21562;49.476;6.086;2023-03-01T16:35:06;20.58;;;12.52;;
35444;SDS011;21562;49.476;6.086;2023-03-01T16:37:33;25.95;;;13.30;;
35444;SDS011;21562;49.476;6.086;2023-03-01T16:39:59;28.60;;;13.07;;
35444;SDS011;21562;49.476;6.086;2023-03-01T16:42:36;25.17;;;12.80;;
35444;SDS011;21562;49.476;6.086;2023-03-01T16:45:27;24.38;;;13.43;;
35444;SDS011;21562;49.476;6.086;2023-03-01T16:48:03;23.17;;;12.32;;
35444;SDS011;21562;49.476;6.086;2023-03-01T16:50:28;24.92;;;12.77;;
35444;SDS011;21562;49.476;6.086;2023-03-01T16:52:54;22.40;;;13.45;;
35444;SDS011;21562;49.476;6.086;2023-03-01T16:55:35;20.83;;;11.65;;
35444;SDS011;21562;49.476;6.086;2023-03-01T16:58:01;23.08;;;11.57;;
35444;SDS011;21562;49.476;6.086;2023-03-01T17:00:27;23.80;;;11.15;;